Brackett, Wisconsin
Current Conditions -  °F | °C
As of 2:56 PM on Thursday 20 Nov 2014 (Local Time) from KEAU Reporting Station
Clear Clear  
Wind Chill:   Ceiling: Unl
Heat Index: 15°   Visibility: 10mi
Dew Point: -2°   Wind: 14mph
Humidity: 47%   Direction: 300°WNW
Pressure: 30.1"   Gusts: 22mph
Location:  44.7441°N, 91.2945°W
Report Text: KEAU 202056Z 30012G19KT 10SM CLR M09/M19 A3010 RMK AO2 SLP211 T10941189 53011
Loading
Personal Weather Stations






























Interactive Weather Map New forecast layout! Learn more

10-Day Weather Forecast

Advertisements
Track Severe Weather on mobile